sensor_id;sensor_type;location;lat;lon;timestamp;temperature;humidity
7704;DHT22;3894;49.700;10.770;2023-07-02T00:01:31;17.70;99.90
7704;DHT22;3894;49.700;10.770;2023-07-02T00:03:56;17.70;99.90
7704;DHT22;3894;49.700;10.770;2023-07-02T00:06:22;17.60;99.90
7704;DHT22;3894;49.700;10.770;2023-07-02T00:08:47;17.60;99.90
7704;DHT22;3894;49.700;10.770;2023-07-02T00:11:16;17.60;99.90
7704;DHT22;3894;49.700;10.770;2023-07-02T00:13:41;17.60;99.90
7704;DHT22;3894;49.700;10.770;2023-07-02T00:16:07;17.60;99.90
7704;DHT22;3894;49.700;10.770;2023-07-02T00:18:33;17.60;99.90
7704;DHT22;3894;49.700;10.770;2023-07-02T00:21:01;17.50;99.90
7704;DHT22;3894;49.700;10.770;2023-07-02T00:23:30;17.50;99.90
7704;DHT22;3894;49.700;10.770;2023-07-02T00:25:59;17.50;99.90
7704;DHT22;3894;49.700;10.770;2023-07-02T00:28:24;17.40;99.90
7704;DHT22;3894;49.700;10.770;2023-07-02T00:30:50;17.40;99.90
7704;DHT22;3894;49.700;10.770;2023-07-02T00:33:16;17.40;99.90
7704;DHT22;3894;49.700;10.770;2023-07-02T00:35:41;17.30;99.90
7704;DHT22;3894;49.700;10.770;2023-07-02T00:38:07;17.30;99.90
7704;DHT22;3894;49.700;10.770;2023-07-02T00:40:32;17.20;99.90
7704;DHT22;3894;49.700;10.770;2023-07-02T00:42:58;17.20;99.90
7704;DHT22;3894;49.700;10.770;2023-07-02T00:45:23;17.20;99.90
7704;DHT22;3894;49.700;10.770;2023-07-02T00:47:54;17.20;99.90
7704;DHT22;3894;49.700;10.770;2023-07-02T00:50:21;17.20;99.90
7704;DHT22;3894;49.700;10.770;2023-07-02T00:52:48;17.20;99.90
7704;DHT22;3894;49.700;10.770;2023-07-02T00:55:13;17.20;99.90
7704;DHT22;3894;49.700;10.770;2023-07-02T00:57:39;17.20;99.90
7704;DHT22;3894;49.700;10.770;2023-07-02T01:00:06;17.20;99.90
7704;DHT22;3894;49.700;10.770;2023-07-02T01:02:32;17.20;99.90
7704;DHT22;3894;49.700;10.770;2023-07-02T01:04:58;17.20;99.90
7704;DHT22;3894;49.700;10.770;2023-07-02T01:07:25;17.20;99.90
7704;DHT22;3894;49.700;10.770;2023-07-02T01:09:51;17.20;99.90
7704;DHT22;3894;49.700;10.770;2023-07-02T01:12:17;17.20;99.90
7704;DHT22;3894;49.700;10.770;2023-07-02T01:14:46;17.20;99.90
7704;DHT22;3894;49.700;10.770;2023-07-02T01:17:13;17.20;99.90
7704;DHT22;3894;49.700;10.770;2023-07-02T01:19:49;17.20;99.90
7704;DHT22;3894;49.700;10.770;2023-07-02T01:22:23;17.20;99.90
7704;DHT22;3894;49.700;10.770;2023-07-02T01:24:50;17.30;99.90
7704;DHT22;3894;49.700;10.770;2023-07-02T01:27:16;17.30;99.90
7704;DHT22;3894;49.700;10.770;2023-07-02T01:29:42;17.30;99.90
7704;DHT22;3894;49.700;10.770;2023-07-02T01:32:10;17.30;99.90
7704;DHT22;3894;49.700;10.770;2023-07-02T01:34:36;17.30;99.90
7704;DHT22;3894;49.700;10.770;2023-07-02T01:37:02;17.20;99.90
7704;DHT22;3894;49.700;10.770;2023-07-02T01:39:28;17.20;99.90
7704;DHT22;3894;49.700;10.770;2023-07-02T01:42:06;17.20;99.90
7704;DHT22;3894;49.700;10.770;2023-07-02T01:44:32;17.20;99.90
7704;DHT22;3894;49.700;10.770;2023-07-02T01:46:57;17.20;99.90
7704;DHT22;3894;49.700;10.770;2023-07-02T01:49:24;17.10;99.90
7704;DHT22;3894;49.700;10.770;2023-07-02T01:51:51;17.10;99.90
7704;DHT22;3894;49.700;10.770;2023-07-02T01:54:17;17.10;99.90
7704;DHT22;3894;49.700;10.770;2023-07-02T01:56:46;17.10;99.90
7704;DHT22;3894;49.700;10.770;2023-07-02T01:59:11;17.10;99.90
7704;DHT22;3894;49.700;10.770;2023-07-02T02:01:37;17.10;99.90
7704;DHT22;3894;49.700;10.770;2023-07-02T02:04:09;17.00;99.90
7704;DHT22;3894;49.700;10.770;2023-07-02T02:06:35;17.00;99.90
7704;DHT22;3894;49.700;10.770;2023-07-02T02:09:02;17.00;99.90
7704;DHT22;3894;49.700;10.770;2023-07-02T02:11:33;17.00;99.90
7704;DHT22;3894;49.700;10.770;2023-07-02T02:13:59;16.90;99.90
7704;DHT22;3894;49.700;10.770;2023-07-02T02:16:28;16.90;99.90
7704;DHT22;3894;49.700;10.770;2023-07-02T02:18:54;16.90;99.90
7704;DHT22;3894;49.700;10.770;2023-07-02T02:21:20;16.90;99.90
7704;DHT22;3894;49.700;10.770;2023-07-02T02:23:46;16.80;99.90
7704;DHT22;3894;49.700;10.770;2023-07-02T02:26:12;16.80;99.90
7704;DHT22;3894;49.700;10.770;2023-07-02T02:28:37;16.80;99.90
7704;DHT22;3894;49.700;10.770;2023-07-02T02:31:03;16.80;99.90
7704;DHT22;3894;49.700;10.770;2023-07-02T02:33:29;16.80;99.90
7704;DHT22;3894;49.700;10.770;2023-07-02T02:35:55;16.70;99.90
7704;DHT22;3894;49.700;10.770;2023-07-02T02:38:20;16.70;99.90
7704;DHT22;3894;49.700;10.770;2023-07-02T02:40:46;16.70;99.90
7704;DHT22;3894;49.700;10.770;2023-07-02T02:43:11;16.60;99.90
7704;DHT22;3894;49.700;10.770;2023-07-02T02:45:37;16.60;99.90
7704;DHT22;3894;49.700;10.770;2023-07-02T02:48:03;16.60;99.90
7704;DHT22;3894;49.700;10.770;2023-07-02T02:50:29;16.60;99.90
7704;DHT22;3894;49.700;10.770;2023-07-02T02:52:54;16.50;99.90
7704;DHT22;3894;49.700;10.770;2023-07-02T02:55:20;16.50;99.90
7704;DHT22;3894;49.700;10.770;2023-07-02T02:57:45;16.50;99.90
7704;DHT22;3894;49.700;10.770;2023-07-02T03:00:11;16.50;99.90
7704;DHT22;3894;49.700;10.770;2023-07-02T03:02:37;16.50;99.90
7704;DHT22;3894;49.700;10.770;2023-07-02T03:05:05;16.50;99.90
7704;DHT22;3894;49.700;10.770;2023-07-02T03:07:32;16.40;99.90
7704;DHT22;3894;49.700;10.770;2023-07-02T03:09:57;16.40;99.90
7704;DHT22;3894;49.700;10.770;2023-07-02T03:12:23;16.30;99.90
7704;DHT22;3894;49.700;10.770;2023-07-02T03:14:48;16.30;99.90
7704;DHT22;3894;49.700;10.770;2023-07-02T03:17:19;16.30;99.90
7704;DHT22;3894;49.700;10.770;2023-07-02T03:19:44;16.30;99.90
7704;DHT22;3894;49.700;10.770;2023-07-02T03:22:10;16.30;99.90
7704;DHT22;3894;49.700;10.770;2023-07-02T03:24:36;16.20;99.90
7704;DHT22;3894;49.700;10.770;2023-07-02T03:27:01;16.20;99.90
7704;DHT22;3894;49.700;10.770;2023-07-02T03:29:27;16.20;99.90
7704;DHT22;3894;49.700;10.770;2023-07-02T03:31:52;16.10;99.90
7704;DHT22;3894;49.700;10.770;2023-07-02T03:34:18;16.10;99.90
7704;DHT22;3894;49.700;10.770;2023-07-02T03:36:44;16.10;99.90
7704;DHT22;3894;49.700;10.770;2023-07-02T03:39:10;16.10;99.90
7704;DHT22;3894;49.700;10.770;2023-07-02T03:41:35;16.10;99.90
7704;DHT22;3894;49.700;10.770;2023-07-02T03:44:01;16.10;99.90
7704;DHT22;3894;49.700;10.770;2023-07-02T03:46:26;16.10;99.90
7704;DHT22;3894;49.700;10.770;2023-07-02T03:48:52;16.00;99.90
7704;DHT22;3894;49.700;10.770;2023-07-02T03:51:18;16.00;99.90
7704;DHT22;3894;49.700;10.770;2023-07-02T03:53:43;16.00;99.90
7704;DHT22;3894;49.700;10.770;2023-07-02T03:56:09;16.10;99.90
7704;DHT22;3894;49.700;10.770;2023-07-02T03:58:34;16.10;99.90
7704;DHT22;3894;49.700;10.770;2023-07-02T04:01:00;16.10;99.90
7704;DHT22;3894;49.700;10.770;2023-07-02T04:03:26;16.10;99.90
7704;DHT22;3894;49.700;10.770;2023-07-02T04:05:51;16.10;99.90
7704;DHT22;3894;49.700;10.770;2023-07-02T04:08:17;16.20;99.90
7704;DHT22;3894;49.700;10.770;2023-07-02T04:10:43;16.20;99.90
7704;DHT22;3894;49.700;10.770;2023-07-02T04:13:09;16.20;99.90
7704;DHT22;3894;49.700;10.770;2023-07-02T04:15:35;16.20;99.90
7704;DHT22;3894;49.700;10.770;2023-07-02T04:18:00;16.20;99.90
7704;DHT22;3894;49.700;10.770;2023-07-02T04:20:27;16.20;99.90
7704;DHT22;3894;49.700;10.770;2023-07-02T04:22:54;16.30;99.90
7704;DHT22;3894;49.700;10.770;2023-07-02T04:25:20;16.30;99.90
7704;DHT22;3894;49.700;10.770;2023-07-02T04:27:45;16.30;99.90
7704;DHT22;3894;49.700;10.770;2023-07-02T04:30:11;16.30;99.90
7704;DHT22;3894;49.700;10.770;2023-07-02T04:32:37;16.30;99.90
7704;DHT22;3894;49.700;10.770;2023-07-02T04:35:09;16.30;99.90
7704;DHT22;3894;49.700;10.770;2023-07-02T04:37:36;16.30;99.90
7704;DHT22;3894;49.700;10.770;2023-07-02T04:40:02;16.30;99.90
7704;DHT22;3894;49.700;10.770;2023-07-02T04:42:37;16.30;99.90
7704;DHT22;3894;49.700;10.770;2023-07-02T04:45:04;16.40;99.90
7704;DHT22;3894;49.700;10.770;2023-07-02T04:47:30;16.60;99.90
7704;DHT22;3894;49.700;10.770;2023-07-02T04:49:56;16.70;99.90
7704;DHT22;3894;49.700;10.770;2023-07-02T04:52:21;16.70;99.90
7704;DHT22;3894;49.700;10.770;2023-07-02T04:54:47;16.80;99.90
7704;DHT22;3894;49.700;10.770;2023-07-02T04:57:12;16.90;99.90
7704;DHT22;3894;49.700;10.770;2023-07-02T04:59:41;16.90;99.90
7704;DHT22;3894;49.700;10.770;2023-07-02T05:02:06;16.90;99.90
7704;DHT22;3894;49.700;10.770;2023-07-02T05:04:32;16.80;99.90
7704;DHT22;3894;49.700;10.770;2023-07-02T05:06:59;16.80;99.90
7704;DHT22;3894;49.700;10.770;2023-07-02T05:09:24;16.80;99.90
7704;DHT22;3894;49.700;10.770;2023-07-02T05:11:50;16.80;99.90
7704;DHT22;3894;49.700;10.770;2023-07-02T05:14:16;16.80;99.90
7704;DHT22;3894;49.700;10.770;2023-07-02T05:16:42;16.90;99.90
7704;DHT22;3894;49.700;10.770;2023-07-02T05:19:07;16.90;99.90
7704;DHT22;3894;49.700;10.770;2023-07-02T05:21:33;17.00;99.90
7704;DHT22;3894;49.700;10.770;2023-07-02T05:23:58;17.00;99.90
7704;DHT22;3894;49.700;10.770;2023-07-02T05:26:24;17.10;99.90
7704;DHT22;3894;49.700;10.770;2023-07-02T05:28:51;17.20;99.90
7704;DHT22;3894;49.700;10.770;2023-07-02T05:31:17;17.20;99.90
7704;DHT22;3894;49.700;10.770;2023-07-02T05:33:42;17.30;99.90
7704;DHT22;3894;49.700;10.770;2023-07-02T05:36:08;17.30;99.90
7704;DHT22;3894;49.700;10.770;2023-07-02T05:38:34;17.20;99.90
7704;DHT22;3894;49.700;10.770;2023-07-02T05:40:59;17.30;99.90
7704;DHT22;3894;49.700;10.770;2023-07-02T05:43:25;17.40;99.90
7704;DHT22;3894;49.700;10.770;2023-07-02T05:45:51;17.50;99.90
7704;DHT22;3894;49.700;10.770;2023-07-02T05:48:17;17.50;99.90
7704;DHT22;3894;49.700;10.770;2023-07-02T05:50:43;17.30;99.90
7704;DHT22;3894;49.700;10.770;2023-07-02T05:53:09;17.40;99.90
7704;DHT22;3894;49.700;10.770;2023-07-02T05:55:35;17.60;99.90
7704;DHT22;3894;49.700;10.770;2023-07-02T05:58:00;17.70;99.90
7704;DHT22;3894;49.700;10.770;2023-07-02T06:00:28;17.80;99.90
7704;DHT22;3894;49.700;10.770;2023-07-02T06:02:54;17.60;99.90
7704;DHT22;3894;49.700;10.770;2023-07-02T06:05:19;17.40;99.90
7704;DHT22;3894;49.700;10.770;2023-07-02T06:07:45;17.30;99.90
7704;DHT22;3894;49.700;10.770;2023-07-02T06:10:11;17.30;99.90
7704;DHT22;3894;49.700;10.770;2023-07-02T06:12:36;17.30;99.90
7704;DHT22;3894;49.700;10.770;2023-07-02T06:15:02;17.30;99.90
7704;DHT22;3894;49.700;10.770;2023-07-02T06:17:28;17.30;99.90
7704;DHT22;3894;49.700;10.770;2023-07-02T06:19:56;17.30;99.90
7704;DHT22;3894;49.700;10.770;2023-07-02T06:22:22;17.40;99.90
7704;DHT22;3894;49.700;10.770;2023-07-02T06:24:47;17.70;99.90
7704;DHT22;3894;49.700;10.770;2023-07-02T06:27:13;18.10;99.90
7704;DHT22;3894;49.700;10.770;2023-07-02T06:29:38;18.50;99.90
7704;DHT22;3894;49.700;10.770;2023-07-02T06:32:04;18.60;99.90
7704;DHT22;3894;49.700;10.770;2023-07-02T06:34:30;18.40;99.90
7704;DHT22;3894;49.700;10.770;2023-07-02T06:36:56;18.10;99.90
7704;DHT22;3894;49.700;10.770;2023-07-02T06:39:21;17.90;99.90
7704;DHT22;3894;49.700;10.770;2023-07-02T06:41:47;17.70;99.90
7704;DHT22;3894;49.700;10.770;2023-07-02T06:44:12;17.60;99.90
7704;DHT22;3894;49.700;10.770;2023-07-02T06:46:38;17.90;99.90
7704;DHT22;3894;49.700;10.770;2023-07-02T06:49:03;18.10;99.90
7704;DHT22;3894;49.700;10.770;2023-07-02T06:51:29;18.40;99.90
7704;DHT22;3894;49.700;10.770;2023-07-02T06:53:55;18.60;99.90
7704;DHT22;3894;49.700;10.770;2023-07-02T06:56:21;18.90;99.90
7704;DHT22;3894;49.700;10.770;2023-07-02T06:58:46;19.30;99.90
7704;DHT22;3894;49.700;10.770;2023-07-02T07:01:12;19.20;99.90
7704;DHT22;3894;49.700;10.770;2023-07-02T07:03:38;19.20;99.90
7704;DHT22;3894;49.700;10.770;2023-07-02T07:06:03;19.00;99.90
7704;DHT22;3894;49.700;10.770;2023-07-02T07:08:29;18.90;99.90
7704;DHT22;3894;49.700;10.770;2023-07-02T07:10:55;18.70;99.90
7704;DHT22;3894;49.700;10.770;2023-07-02T07:13:20;18.60;99.90
7704;DHT22;3894;49.700;10.770;2023-07-02T07:15:46;18.60;99.90
7704;DHT22;3894;49.700;10.770;2023-07-02T07:18:12;18.50;99.90
7704;DHT22;3894;49.700;10.770;2023-07-02T07:20:39;18.50;99.90
7704;DHT22;3894;49.700;10.770;2023-07-02T07:23:06;18.50;99.90
7704;DHT22;3894;49.700;10.770;2023-07-02T07:25:31;19.00;99.90
7704;DHT22;3894;49.700;10.770;2023-07-02T07:27:59;19.40;99.90
7704;DHT22;3894;49.700;10.770;2023-07-02T07:30:25;19.70;99.90
7704;DHT22;3894;49.700;10.770;2023-07-02T07:32:51;19.60;99.90
7704;DHT22;3894;49.700;10.770;2023-07-02T07:35:18;19.80;99.90
7704;DHT22;3894;49.700;10.770;2023-07-02T07:37:44;20.00;99.90
7704;DHT22;3894;49.700;10.770;2023-07-02T07:40:10;20.00;99.90
7704;DHT22;3894;49.700;10.770;2023-07-02T07:42:36;20.10;99.90
7704;DHT22;3894;49.700;10.770;2023-07-02T07:45:03;20.50;99.90
7704;DHT22;3894;49.700;10.770;2023-07-02T07:47:29;20.40;99.90
7704;DHT22;3894;49.700;10.770;2023-07-02T07:49:54;20.10;99.90
7704;DHT22;3894;49.700;10.770;2023-07-02T07:52:20;19.60;99.90
7704;DHT22;3894;49.700;10.770;2023-07-02T07:54:46;19.70;99.90
7704;DHT22;3894;49.700;10.770;2023-07-02T07:57:12;19.80;99.90
7704;DHT22;3894;49.700;10.770;2023-07-02T07:59:37;19.90;99.90
7704;DHT22;3894;49.700;10.770;2023-07-02T08:02:03;20.00;99.90
7704;DHT22;3894;49.700;10.770;2023-07-02T08:04:29;20.10;99.90
7704;DHT22;3894;49.700;10.770;2023-07-02T08:06:54;20.30;99.90
7704;DHT22;3894;49.700;10.770;2023-07-02T08:09:20;20.30;99.90
7704;DHT22;3894;49.700;10.770;2023-07-02T08:11:46;20.30;99.90
7704;DHT22;3894;49.700;10.770;2023-07-02T08:14:12;20.00;99.90
7704;DHT22;3894;49.700;10.770;2023-07-02T08:16:38;19.90;99.90
7704;DHT22;3894;49.700;10.770;2023-07-02T08:19:03;20.20;99.90
7704;DHT22;3894;49.700;10.770;2023-07-02T08:21:29;20.60;99.90
7704;DHT22;3894;49.700;10.770;2023-07-02T08:23:55;20.90;99.90
7704;DHT22;3894;49.700;10.770;2023-07-02T08:26:23;20.80;99.90
7704;DHT22;3894;49.700;10.770;2023-07-02T08:28:48;20.20;99.90
7704;DHT22;3894;49.700;10.770;2023-07-02T08:31:14;20.00;99.90
7704;DHT22;3894;49.700;10.770;2023-07-02T08:33:40;20.10;99.90
7704;DHT22;3894;49.700;10.770;2023-07-02T08:36:05;20.20;99.90
7704;DHT22;3894;49.700;10.770;2023-07-02T08:38:32;20.40;99.90
7704;DHT22;3894;49.700;10.770;2023-07-02T08:40:57;20.50;99.90
7704;DHT22;3894;49.700;10.770;2023-07-02T08:43:25;20.40;99.90
7704;DHT22;3894;49.700;10.770;2023-07-02T08:45:53;20.50;99.90
7704;DHT22;3894;49.700;10.770;2023-07-02T08:48:19;20.30;99.90
7704;DHT22;3894;49.700;10.770;2023-07-02T08:50:48;20.70;99.90
7704;DHT22;3894;49.700;10.770;2023-07-02T08:53:16;21.00;99.90
7704;DHT22;3894;49.700;10.770;2023-07-02T08:55:42;21.10;99.90
7704;DHT22;3894;49.700;10.770;2023-07-02T08:58:07;21.00;99.90
7704;DHT22;3894;49.700;10.770;2023-07-02T09:00:33;21.40;99.90
7704;DHT22;3894;49.700;10.770;2023-07-02T09:03:17;21.90;99.90
7704;DHT22;3894;49.700;10.770;2023-07-02T09:05:50;21.40;99.90
7704;DHT22;3894;49.700;10.770;2023-07-02T09:08:26;20.90;99.90
7704;DHT22;3894;49.700;10.770;2023-07-02T09:10:53;20.60;99.90
7704;DHT22;3894;49.700;10.770;2023-07-02T09:13:18;20.50;99.90
7704;DHT22;3894;49.700;10.770;2023-07-02T09:15:44;20.60;99.90
7704;DHT22;3894;49.700;10.770;2023-07-02T09:18:17;21.00;99.90
7704;DHT22;3894;49.700;10.770;2023-07-02T09:20:43;21.40;99.90
7704;DHT22;3894;49.700;10.770;2023-07-02T09:23:08;21.20;99.90
7704;DHT22;3894;49.700;10.770;2023-07-02T09:25:37;20.90;99.90
7704;DHT22;3894;49.700;10.770;2023-07-02T09:28:14;20.80;99.90
7704;DHT22;3894;49.700;10.770;2023-07-02T09:30:55;20.90;99.90
7704;DHT22;3894;49.700;10.770;2023-07-02T09:33:21;21.30;99.90
7704;DHT22;3894;49.700;10.770;2023-07-02T09:35:48;21.30;99.90
7704;DHT22;3894;49.700;10.770;2023-07-02T09:38:13;21.10;99.90
7704;DHT22;3894;49.700;10.770;2023-07-02T09:40:46;21.10;99.90
7704;DHT22;3894;49.700;10.770;2023-07-02T09:43:13;21.20;99.90
7704;DHT22;3894;49.700;10.770;2023-07-02T09:45:42;21.10;99.90
7704;DHT22;3894;49.700;10.770;2023-07-02T09:48:08;21.10;99.90
7704;DHT22;3894;49.700;10.770;2023-07-02T09:50:34;20.90;99.90
7704;DHT22;3894;49.700;10.770;2023-07-02T09:53:03;20.90;99.90
7704;DHT22;3894;49.700;10.770;2023-07-02T09:55:29;20.70;99.90
7704;DHT22;3894;49.700;10.770;2023-07-02T09:57:55;20.60;99.90
7704;DHT22;3894;49.700;10.770;2023-07-02T10:00:20;20.50;99.90
7704;DHT22;3894;49.700;10.770;2023-07-02T10:02:49;20.30;99.90
7704;DHT22;3894;49.700;10.770;2023-07-02T10:05:31;20.50;99.90
7704;DHT22;3894;49.700;10.770;2023-07-02T10:07:59;20.60;99.90
7704;DHT22;3894;49.700;10.770;2023-07-02T10:10:36;20.70;99.90
7704;DHT22;3894;49.700;10.770;2023-07-02T10:13:02;21.30;99.90
7704;DHT22;3894;49.700;10.770;2023-07-02T10:15:29;21.30;99.90
7704;DHT22;3894;49.700;10.770;2023-07-02T10:18:01;21.10;99.90
7704;DHT22;3894;49.700;10.770;2023-07-02T10:20:40;21.20;99.90
7704;DHT22;3894;49.700;10.770;2023-07-02T10:23:08;21.20;99.90
7704;DHT22;3894;49.700;10.770;2023-07-02T10:25:36;21.20;99.90
7704;DHT22;3894;49.700;10.770;2023-07-02T10:28:20;21.30;99.90
7704;DHT22;3894;49.700;10.770;2023-07-02T10:30:52;21.40;99.90
7704;DHT22;3894;49.700;10.770;2023-07-02T10:33:19;21.70;99.90
7704;DHT22;3894;49.700;10.770;2023-07-02T10:35:46;21.60;99.90
7704;DHT22;3894;49.700;10.770;2023-07-02T10:38:24;21.50;99.30
7704;DHT22;3894;49.700;10.770;2023-07-02T10:40:56;21.30;99.10
7704;DHT22;3894;49.700;10.770;2023-07-02T10:43:29;21.30;99.30
7704;DHT22;3894;49.700;10.770;2023-07-02T10:45:56;21.40;99.40
7704;DHT22;3894;49.700;10.770;2023-07-02T10:48:22;21.40;99.20
7704;DHT22;3894;49.700;10.770;2023-07-02T10:50:47;21.40;99.00
7704;DHT22;3894;49.700;10.770;2023-07-02T10:53:17;21.30;98.90
7704;DHT22;3894;49.700;10.770;2023-07-02T10:55:43;21.30;98.50
7704;DHT22;3894;49.700;10.770;2023-07-02T10:58:10;21.10;98.80
7704;DHT22;3894;49.700;10.770;2023-07-02T11:00:46;21.20;99.20
7704;DHT22;3894;49.700;10.770;2023-07-02T11:03:23;21.50;98.80
7704;DHT22;3894;49.700;10.770;2023-07-02T11:05:50;21.60;98.60
7704;DHT22;3894;49.700;10.770;2023-07-02T11:08:16;21.50;98.20
7704;DHT22;3894;49.700;10.770;2023-07-02T11:10:42;21.40;98.10
7704;DHT22;3894;49.700;10.770;2023-07-02T11:13:15;21.60;97.90
7704;DHT22;3894;49.700;10.770;2023-07-02T11:15:42;21.80;97.90
7704;DHT22;3894;49.700;10.770;2023-07-02T11:18:15;21.90;97.60
7704;DHT22;3894;49.700;10.770;2023-07-02T11:20:42;22.10;97.20
7704;DHT22;3894;49.700;10.770;2023-07-02T11:23:18;22.50;96.50
7704;DHT22;3894;49.700;10.770;2023-07-02T11:25:57;22.80;96.40
7704;DHT22;3894;49.700;10.770;2023-07-02T11:28:23;22.70;94.90
7704;DHT22;3894;49.700;10.770;2023-07-02T11:30:49;22.40;95.80
7704;DHT22;3894;49.700;10.770;2023-07-02T11:33:15;22.50;95.70
7704;DHT22;3894;49.700;10.770;2023-07-02T11:35:40;22.40;95.40
7704;DHT22;3894;49.700;10.770;2023-07-02T11:38:09;22.70;94.90
7704;DHT22;3894;49.700;10.770;2023-07-02T11:40:36;22.90;94.80
7704;DHT22;3894;49.700;10.770;2023-07-02T11:43:01;22.90;94.70
7704;DHT22;3894;49.700;10.770;2023-07-02T11:45:27;22.80;94.70
7704;DHT22;3894;49.700;10.770;2023-07-02T11:47:54;22.90;94.90
7704;DHT22;3894;49.700;10.770;2023-07-02T11:50:19;22.90;94.70
7704;DHT22;3894;49.700;10.770;2023-07-02T11:52:45;22.70;94.30
7704;DHT22;3894;49.700;10.770;2023-07-02T11:55:11;22.50;94.10
7704;DHT22;3894;49.700;10.770;2023-07-02T11:57:36;22.10;94.00
7704;DHT22;3894;49.700;10.770;2023-07-02T12:00:02;22.10;94.10
7704;DHT22;3894;49.700;10.770;2023-07-02T12:02:28;22.10;94.30
7704;DHT22;3894;49.700;10.770;2023-07-02T12:04:54;22.60;94.10
7704;DHT22;3894;49.700;10.770;2023-07-02T12:07:19;23.40;93.60
7704;DHT22;3894;49.700;10.770;2023-07-02T12:09:45;23.90;91.70
7704;DHT22;3894;49.700;10.770;2023-07-02T12:12:10;23.60;90.80
7704;DHT22;3894;49.700;10.770;2023-07-02T12:14:36;23.10;91.10
7704;DHT22;3894;49.700;10.770;2023-07-02T12:17:03;22.80;90.90
7704;DHT22;3894;49.700;10.770;2023-07-02T12:19:29;22.60;91.50
7704;DHT22;3894;49.700;10.770;2023-07-02T12:21:54;22.90;92.10
7704;DHT22;3894;49.700;10.770;2023-07-02T12:24:21;22.90;91.70
7704;DHT22;3894;49.700;10.770;2023-07-02T12:26:47;22.80;91.40
7704;DHT22;3894;49.700;10.770;2023-07-02T12:29:12;22.90;91.90
7704;DHT22;3894;49.700;10.770;2023-07-02T12:31:38;22.80;91.10
7704;DHT22;3894;49.700;10.770;2023-07-02T12:34:04;22.70;91.10
7704;DHT22;3894;49.700;10.770;2023-07-02T12:36:29;22.80;90.70
7704;DHT22;3894;49.700;10.770;2023-07-02T12:38:55;23.10;90.60
7704;DHT22;3894;49.700;10.770;2023-07-02T12:41:20;23.30;90.50
7704;DHT22;3894;49.700;10.770;2023-07-02T12:43:46;23.90;90.30
7704;DHT22;3894;49.700;10.770;2023-07-02T12:46:11;24.60;88.00
7704;DHT22;3894;49.700;10.770;2023-07-02T12:48:37;24.30;86.50
7704;DHT22;3894;49.700;10.770;2023-07-02T12:51:02;24.20;89.50
7704;DHT22;3894;49.700;10.770;2023-07-02T12:53:28;24.50;89.00
7704;DHT22;3894;49.700;10.770;2023-07-02T12:55:54;24.10;88.50
7704;DHT22;3894;49.700;10.770;2023-07-02T12:58:22;23.80;88.00
7704;DHT22;3894;49.700;10.770;2023-07-02T13:00:48;23.80;88.80
7704;DHT22;3894;49.700;10.770;2023-07-02T13:03:14;23.90;89.70
7704;DHT22;3894;49.700;10.770;2023-07-02T13:05:39;24.10;90.20
7704;DHT22;3894;49.700;10.770;2023-07-02T13:08:06;24.50;89.60
7704;DHT22;3894;49.700;10.770;2023-07-02T13:10:32;24.80;88.60
7704;DHT22;3894;49.700;10.770;2023-07-02T13:12:58;24.40;88.00
7704;DHT22;3894;49.700;10.770;2023-07-02T13:15:24;24.20;88.30
7704;DHT22;3894;49.700;10.770;2023-07-02T13:17:50;24.40;88.00
7704;DHT22;3894;49.700;10.770;2023-07-02T13:20:16;24.60;87.80
7704;DHT22;3894;49.700;10.770;2023-07-02T13:22:42;24.40;87.60
7704;DHT22;3894;49.700;10.770;2023-07-02T13:25:07;24.40;86.90
7704;DHT22;3894;49.700;10.770;2023-07-02T13:27:33;24.40;85.90
7704;DHT22;3894;49.700;10.770;2023-07-02T13:29:59;24.40;86.80
7704;DHT22;3894;49.700;10.770;2023-07-02T13:32:24;24.60;84.70
7704;DHT22;3894;49.700;10.770;2023-07-02T13:34:51;24.70;83.50
7704;DHT22;3894;49.700;10.770;2023-07-02T13:37:16;24.70;84.20
7704;DHT22;3894;49.700;10.770;2023-07-02T13:39:46;24.50;83.70
7704;DHT22;3894;49.700;10.770;2023-07-02T13:42:11;24.20;84.10
7704;DHT22;3894;49.700;10.770;2023-07-02T13:44:37;23.90;84.90
7704;DHT22;3894;49.700;10.770;2023-07-02T13:47:03;24.00;85.40
7704;DHT22;3894;49.700;10.770;2023-07-02T13:49:28;24.10;83.70
7704;DHT22;3894;49.700;10.770;2023-07-02T13:51:54;23.90;83.70
7704;DHT22;3894;49.700;10.770;2023-07-02T13:54:19;23.70;83.90
7704;DHT22;3894;49.700;10.770;2023-07-02T13:56:46;23.70;85.00
7704;DHT22;3894;49.700;10.770;2023-07-02T13:59:12;23.50;84.60
7704;DHT22;3894;49.700;10.770;2023-07-02T14:01:37;23.40;85.70
7704;DHT22;3894;49.700;10.770;2023-07-02T14:04:04;23.40;86.30
7704;DHT22;3894;49.700;10.770;2023-07-02T14:06:29;23.70;85.50
7704;DHT22;3894;49.700;10.770;2023-07-02T14:08:55;23.90;83.50
7704;DHT22;3894;49.700;10.770;2023-07-02T14:11:22;24.20;83.80
7704;DHT22;3894;49.700;10.770;2023-07-02T14:13:48;24.40;82.60
7704;DHT22;3894;49.700;10.770;2023-07-02T14:16:14;24.40;82.50
7704;DHT22;3894;49.700;10.770;2023-07-02T14:18:39;24.60;81.30
7704;DHT22;3894;49.700;10.770;2023-07-02T14:21:05;24.60;80.60
7704;DHT22;3894;49.700;10.770;2023-07-02T14:23:31;24.60;80.10
7704;DHT22;3894;49.700;10.770;2023-07-02T14:25:57;24.80;80.80
7704;DHT22;3894;49.700;10.770;2023-07-02T14:28:23;24.80;79.00
7704;DHT22;3894;49.700;10.770;2023-07-02T14:30:59;24.70;79.70
7704;DHT22;3894;49.700;10.770;2023-07-02T14:33:26;24.60;80.00
7704;DHT22;3894;49.700;10.770;2023-07-02T14:35:52;24.50;79.60
7704;DHT22;3894;49.700;10.770;2023-07-02T14:38:17;24.10;80.50
7704;DHT22;3894;49.700;10.770;2023-07-02T14:40:43;24.00;81.40
7704;DHT22;3894;49.700;10.770;2023-07-02T14:43:08;23.70;82.10
7704;DHT22;3894;49.700;10.770;2023-07-02T14:45:34;23.80;81.80
7704;DHT22;3894;49.700;10.770;2023-07-02T14:47:59;23.80;81.90
7704;DHT22;3894;49.700;10.770;2023-07-02T14:50:28;23.60;81.60
7704;DHT22;3894;49.700;10.770;2023-07-02T14:52:55;23.50;82.30
7704;DHT22;3894;49.700;10.770;2023-07-02T14:55:21;23.70;82.00
7704;DHT22;3894;49.700;10.770;2023-07-02T14:57:46;23.70;81.90
7704;DHT22;3894;49.700;10.770;2023-07-02T15:00:12;23.90;82.50
7704;DHT22;3894;49.700;10.770;2023-07-02T15:02:38;23.90;81.80
7704;DHT22;3894;49.700;10.770;2023-07-02T15:05:04;23.70;81.20
7704;DHT22;3894;49.700;10.770;2023-07-02T15:07:29;24.00;80.70
7704;DHT22;3894;49.700;10.770;2023-07-02T15:09:55;24.10;80.20
7704;DHT22;3894;49.700;10.770;2023-07-02T15:12:21;24.10;80.00
7704;DHT22;3894;49.700;10.770;2023-07-02T15:14:46;24.10;80.60
7704;DHT22;3894;49.700;10.770;2023-07-02T15:17:11;24.10;80.30
7704;DHT22;3894;49.700;10.770;2023-07-02T15:19:37;24.30;80.20
7704;DHT22;3894;49.700;10.770;2023-07-02T15:22:03;24.40;80.20
7704;DHT22;3894;49.700;10.770;2023-07-02T15:24:28;24.50;78.20
7704;DHT22;3894;49.700;10.770;2023-07-02T15:26:54;24.30;77.70
7704;DHT22;3894;49.700;10.770;2023-07-02T15:29:20;24.00;78.70
7704;DHT22;3894;49.700;10.770;2023-07-02T15:31:45;23.80;79.30
7704;DHT22;3894;49.700;10.770;2023-07-02T15:34:12;23.90;80.00
7704;DHT22;3894;49.700;10.770;2023-07-02T15:36:44;23.80;79.90
7704;DHT22;3894;49.700;10.770;2023-07-02T15:39:09;23.60;79.90
7704;DHT22;3894;49.700;10.770;2023-07-02T15:41:35;23.70;80.80